Time;durP1;ratioP1;P1;durP2;ratioP2;P2;SDS_P1;SDS_P2;PMS_P1;PMS_P2;Temp;Humidity;BMP_temperature;BMP_pressure;BME280_temperature;BME280_humidity;BME280_pressure;Samples;Min_cycle;Max_cycle;Signal;HPM_P1;HPM_P2
2021/09/16 00:00:25;;;;;;;10.75;8.40;;;18.30;99.90;;;;;;5037613;28;20025;-75
2021/09/16 00:02:50;;;;;;;10.73;8.82;;;18.30;99.90;;;;;;5040598;28;20030;-76
2021/09/16 00:05:17;;;;;;;11.27;9.35;;;18.20;99.90;;;;;;5043870;28;20026;-74
2021/09/16 00:07:44;;;;;;;10.07;8.95;;;18.30;99.90;;;;;;5042443;28;20032;-75
2021/09/16 00:10:10;;;;;;;12.60;9.85;;;18.20;99.90;;;;;;5037688;28;20052;-76
2021/09/16 00:12:36;;;;;;;11.27;9.88;;;18.10;99.90;;;;;;5041605;28;20514;-74
2021/09/16 00:15:02;;;;;;;10.48;9.32;;;18.10;99.90;;;;;;5043857;28;20034;-74
2021/09/16 00:17:28;;;;;;;13.55;8.73;;;18.10;99.90;;;;;;5041865;28;20130;-74
2021/09/16 00:19:53;;;;;;;11.02;9.10;;;18.20;99.90;;;;;;5046200;28;20482;-75
2021/09/16 00:22:19;;;;;;;10.85;8.57;;;18.20;99.90;;;;;;5040631;28;20056;-74
2021/09/16 00:24:44;;;;;;;10.90;8.50;;;18.30;99.90;;;;;;5061715;28;20025;-75
2021/09/16 00:27:10;;;;;;;11.93;9.55;;;18.30;99.90;;;;;;5040134;28;20064;-75
2021/09/16 00:29:35;;;;;;;11.43;9.10;;;18.40;99.90;;;;;;5038363;28;20082;-74
2021/09/16 00:32:01;;;;;;;13.52;9.70;;;18.40;99.90;;;;;;5051414;28;20029;-74
2021/09/16 00:34:26;;;;;;;12.75;8.85;;;18.30;99.90;;;;;;5035151;28;20037;-74
2021/09/16 00:36:52;;;;;;;11.43;9.20;;;18.30;99.90;;;;;;5050115;28;20434;-74
2021/09/16 00:39:17;;;;;;;10.57;8.23;;;18.40;99.90;;;;;;5039691;28;20029;-75
2021/09/16 00:41:43;;;;;;;12.02;9.50;;;18.40;99.90;;;;;;5031502;28;20538;-74
2021/09/16 00:44:09;;;;;;;10.25;9.13;;;18.40;99.90;;;;;;5033720;28;20026;-75
2021/09/16 00:46:34;;;;;;;12.88;8.18;;;18.30;99.90;;;;;;5051073;28;20028;-74
2021/09/16 00:49:00;;;;;;;11.60;9.23;;;18.20;99.90;;;;;;5051457;28;20082;-75
2021/09/16 00:51:25;;;;;;;12.57;8.88;;;18.10;99.90;;;;;;5042767;28;20447;-74
2021/09/16 00:53:54;;;;;;;10.23;9.15;;;18.10;99.90;;;;;;5058418;28;20032;-74
2021/09/16 00:56:22;;;;;;;14.93;9.35;;;18.10;99.90;;;;;;5029845;28;20446;-75
2021/09/16 00:58:51;;;;;;;10.75;9.43;;;18.10;99.90;;;;;;5058006;28;20036;-75
2021/09/16 01:01:17;;;;;;;10.00;8.30;;;18.20;99.90;;;;;;5030124;28;20022;-75
2021/09/16 01:03:43;;;;;;;9.55;8.55;;;18.20;99.90;;;;;;5033640;28;20021;-75
2021/09/16 01:06:09;;;;;;;11.20;8.70;;;18.20;99.90;;;;;;5040099;28;20083;-75
2021/09/16 01:08:35;;;;;;;9.68;8.02;;;18.10;99.90;;;;;;5044991;28;20100;-77
2021/09/16 01:11:01;;;;;;;10.45;8.68;;;18.00;99.90;;;;;;5051229;28;20024;-75
2021/09/16 01:13:26;;;;;;;10.40;8.60;;;18.00;99.90;;;;;;5051409;28;20026;-77
2021/09/16 01:15:52;;;;;;;10.88;8.40;;;18.00;99.90;;;;;;5039606;28;20029;-76
2021/09/16 01:18:17;;;;;;;11.48;8.77;;;18.00;99.90;;;;;;5037838;28;20075;-76
2021/09/16 01:20:43;;;;;;;11.55;8.60;;;18.00;99.90;;;;;;5043580;28;20080;-76
2021/09/16 01:23:09;;;;;;;10.82;8.85;;;18.00;99.90;;;;;;5050736;28;20111;-76
2021/09/16 01:25:35;;;;;;;9.82;8.18;;;18.00;99.90;;;;;;5061219;28;20025;-75
2021/09/16 01:28:02;;;;;;;10.77;8.70;;;18.00;99.90;;;;;;5037794;28;20446;-75
2021/09/16 01:30:29;;;;;;;9.55;8.27;;;18.00;99.90;;;;;;5039770;28;20422;-76
2021/09/16 01:32:56;;;;;;;14.77;8.70;;;18.00;99.90;;;;;;5047776;28;20448;-75
2021/09/16 01:35:22;;;;;;;13.88;9.32;;;18.00;99.90;;;;;;5045541;28;20449;-75
2021/09/16 01:37:48;;;;;;;12.00;8.80;;;17.90;99.90;;;;;;5041214;28;20024;-75
2021/09/16 01:40:14;;;;;;;10.85;8.68;;;17.80;99.90;;;;;;5043964;28;20136;-76
2021/09/16 01:42:41;;;;;;;12.90;9.00;;;17.80;99.90;;;;;;5037346;28;20017;-75
2021/09/16 01:45:12;;;;;;;11.40;8.88;;;17.80;99.90;;;;;;5043659;28;20432;-76
2021/09/16 01:47:38;;;;;;;12.13;8.98;;;17.70;99.90;;;;;;5034714;28;20030;-75
2021/09/16 01:50:04;;;;;;;10.63;8.95;;;17.70;99.90;;;;;;5034487;28;20025;-77
2021/09/16 01:52:29;;;;;;;10.35;9.35;;;17.80;99.90;;;;;;5047740;28;20026;-75
2021/09/16 01:54:55;;;;;;;10.80;9.50;;;17.90;99.90;;;;;;5045735;28;20530;-75
2021/09/16 01:57:20;;;;;;;10.82;8.95;;;18.00;99.90;;;;;;5054056;28;20039;-74
2021/09/16 01:59:46;;;;;;;13.25;8.75;;;18.00;99.90;;;;;;5054174;28;20021;-75
2021/09/16 02:02:11;;;;;;;14.63;8.98;;;17.90;99.90;;;;;;5054197;28;20510;-74
2021/09/16 02:04:37;;;;;;;11.27;9.18;;;17.90;99.90;;;;;;5042698;28;20060;-75
2021/09/16 02:07:02;;;;;;;10.88;8.65;;;17.90;99.90;;;;;;5056158;28;20406;-75
2021/09/16 02:09:28;;;;;;;10.95;8.98;;;17.80;99.90;;;;;;5052322;28;20026;-75
2021/09/16 02:11:53;;;;;;;10.45;9.23;;;17.90;99.90;;;;;;5042757;28;20082;-76
2021/09/16 02:14:19;;;;;;;11.40;8.52;;;17.90;99.90;;;;;;5050429;28;20025;-76
2021/09/16 02:16:44;;;;;;;13.43;9.30;;;17.90;99.90;;;;;;5046224;28;20065;-77
2021/09/16 02:19:10;;;;;;;9.95;8.65;;;17.90;99.90;;;;;;5043456;28;20029;-75
2021/09/16 02:21:35;;;;;;;12.35;10.40;;;17.80;99.90;;;;;;5067228;28;20313;-74
2021/09/16 02:24:02;;;;;;;11.15;9.07;;;17.90;99.90;;;;;;5041829;28;20438;-75
2021/09/16 02:26:27;;;;;;;13.13;10.13;;;17.90;99.90;;;;;;5032322;28;20090;-74
2021/09/16 02:28:53;;;;;;;13.20;10.32;;;17.90;99.90;;;;;;5033762;28;20116;-75
2021/09/16 02:31:18;;;;;;;12.70;10.50;;;17.90;99.90;;;;;;5053845;28;20363;-74
2021/09/16 02:33:44;;;;;;;12.38;11.07;;;17.90;99.90;;;;;;5048216;28;20530;-75
2021/09/16 02:36:10;;;;;;;18.00;11.38;;;18.00;99.90;;;;;;5046816;28;20029;-75
2021/09/16 02:38:35;;;;;;;13.57;10.77;;;18.00;99.90;;;;;;5053769;28;20032;-74
2021/09/16 02:41:01;;;;;;;14.10;11.35;;;17.90;99.90;;;;;;5042181;28;20041;-74
2021/09/16 02:43:26;;;;;;;15.32;11.82;;;17.90;99.90;;;;;;5041592;28;20021;-74
2021/09/16 02:45:52;;;;;;;12.23;10.63;;;17.90;99.90;;;;;;5047082;28;20064;-75
2021/09/16 02:48:17;;;;;;;15.13;11.02;;;18.00;99.90;;;;;;5043283;28;20025;-75
2021/09/16 02:50:43;;;;;;;16.20;11.40;;;18.00;99.90;;;;;;5039789;28;20063;-77
2021/09/16 02:53:08;;;;;;;15.48;11.00;;;18.10;99.90;;;;;;5042486;28;20102;-77
2021/09/16 02:55:34;;;;;;;12.43;11.13;;;18.10;99.90;;;;;;5046267;28;20037;-78
2021/09/16 02:58:00;;;;;;;13.10;10.45;;;18.10;99.90;;;;;;5041883;28;20021;-76
2021/09/16 03:00:25;;;;;;;14.75;10.93;;;18.20;99.90;;;;;;5049955;28;20498;-75
2021/09/16 03:02:51;;;;;;;12.45;10.77;;;18.10;99.90;;;;;;5041844;28;20021;-76
2021/09/16 03:05:16;;;;;;;14.52;10.57;;;17.90;99.90;;;;;;5039583;28;20364;-77
2021/09/16 03:07:42;;;;;;;12.60;10.90;;;17.90;99.90;;;;;;5053022;28;20481;-77
2021/09/16 03:10:10;;;;;;;13.32;10.93;;;17.90;99.90;;;;;;5049859;28;20079;-78
2021/09/16 03:12:35;;;;;;;18.45;12.23;;;18.00;99.90;;;;;;5042863;28;20125;-76
2021/09/16 03:15:01;;;;;;;14.88;12.70;;;17.80;99.90;;;;;;5039149;28;20033;-77
2021/09/16 03:17:26;;;;;;;15.40;12.80;;;17.80;99.90;;;;;;5052716;28;20074;-77
2021/09/16 03:19:52;;;;;;;18.92;13.75;;;17.70;99.90;;;;;;5066231;28;20025;-76
2021/09/16 03:22:17;;;;;;;19.67;14.52;;;17.60;99.90;;;;;;5042101;28;20109;-76
2021/09/16 03:24:43;;;;;;;19.15;14.80;;;17.60;99.90;;;;;;5048939;28;20040;-77
2021/09/16 03:27:08;;;;;;;22.67;16.35;;;17.50;99.90;;;;;;5042899;28;20063;-76
2021/09/16 03:29:34;;;;;;;27.33;16.77;;;17.50;99.90;;;;;;5044829;28;20032;-75
2021/09/16 03:31:59;;;;;;;23.17;15.77;;;17.40;99.90;;;;;;5041083;28;20479;-76
2021/09/16 03:34:25;;;;;;;21.55;15.52;;;17.40;99.90;;;;;;5049650;28;20022;-78
2021/09/16 03:36:50;;;;;;;21.35;15.43;;;17.60;99.90;;;;;;5042394;28;20025;-78
2021/09/16 03:39:16;;;;;;;18.80;15.85;;;17.60;99.90;;;;;;5037838;28;20548;-77
2021/09/16 03:41:41;;;;;;;22.85;16.05;;;17.60;99.90;;;;;;5041756;28;20048;-77
2021/09/16 03:44:07;;;;;;;20.17;16.70;;;17.60;99.90;;;;;;5050391;28;20387;-77
2021/09/16 03:46:33;;;;;;;22.42;17.45;;;17.60;99.90;;;;;;5062962;28;20033;-77
2021/09/16 03:48:58;;;;;;;19.50;16.27;;;17.60;99.90;;;;;;5038877;28;20079;-77
2021/09/16 03:51:24;;;;;;;22.52;17.13;;;17.60;99.90;;;;;;5042275;28;20021;-77
2021/09/16 03:53:49;;;;;;;24.48;17.15;;;17.60;99.90;;;;;;5044510;28;20032;-76
2021/09/16 03:56:15;;;;;;;23.13;17.17;;;17.50;99.90;;;;;;5039125;28;20506;-76
2021/09/16 03:58:41;;;;;;;19.98;15.63;;;17.60;99.90;;;;;;5050842;28;20383;-78
2021/09/16 04:01:07;;;;;;;27.08;18.20;;;17.70;99.90;;;;;;5043388;28;20033;-74
2021/09/16 04:03:33;;;;;;;21.02;17.35;;;17.70;99.90;;;;;;5044212;28;20025;-77
2021/09/16 04:05:58;;;;;;;21.70;17.50;;;17.70;99.90;;;;;;5040619;28;20407;-75
2021/09/16 04:08:24;;;;;;;22.95;18.08;;;17.60;99.90;;;;;;5038507;28;20148;-74
2021/09/16 04:10:49;;;;;;;20.75;16.67;;;17.60;99.90;;;;;;5051834;28;20166;-74
2021/09/16 04:13:15;;;;;;;18.55;16.38;;;17.60;99.90;;;;;;5038539;28;20091;-75
2021/09/16 04:15:41;;;;;;;24.75;17.23;;;17.70;99.90;;;;;;5041984;28;20010;-75
2021/09/16 04:18:06;;;;;;;27.10;19.02;;;17.50;99.90;;;;;;5044131;28;20115;-77
2021/09/16 04:20:32;;;;;;;24.20;17.90;;;17.50;99.90;;;;;;5032225;28;20096;-77
2021/09/16 04:22:57;;;;;;;25.35;18.52;;;17.40;99.90;;;;;;5045544;28;20052;-75
2021/09/16 04:25:23;;;;;;;23.38;18.38;;;17.50;99.90;;;;;;5039525;28;20051;-75
2021/09/16 04:27:49;;;;;;;22.98;17.75;;;17.40;99.90;;;;;;5036859;28;20029;-74
2021/09/16 04:30:14;;;;;;;24.23;18.95;;;17.50;99.90;;;;;;5043611;28;20061;-76
2021/09/16 04:32:40;;;;;;;18.63;16.10;;;17.60;99.90;;;;;;5045600;28;20029;-74
2021/09/16 04:35:07;;;;;;;23.63;18.25;;;17.70;99.90;;;;;;5043149;28;20028;-75
2021/09/16 04:37:33;;;;;;;25.17;18.35;;;17.70;99.90;;;;;;5061953;28;20033;-71
2021/09/16 04:39:59;;;;;;;22.25;17.65;;;17.70;99.90;;;;;;5063231;28;20032;-74
2021/09/16 04:42:24;;;;;;;24.52;18.38;;;17.80;99.90;;;;;;5037834;28;20380;-75
2021/09/16 04:44:50;;;;;;;21.95;17.30;;;17.70;99.90;;;;;;5061257;28;20481;-75
2021/09/16 04:47:15;;;;;;;20.55;17.30;;;17.70;99.90;;;;;;5053063;28;20075;-75
2021/09/16 04:49:41;;;;;;;24.88;19.17;;;17.80;99.90;;;;;;5031609;28;20387;-75
2021/09/16 04:52:06;;;;;;;23.33;18.38;;;17.80;99.90;;;;;;5034149;28;20025;-76
2021/09/16 04:54:32;;;;;;;21.05;17.65;;;17.70;99.90;;;;;;5041285;28;20057;-75
2021/09/16 04:56:58;;;;;;;21.08;18.20;;;17.70;99.90;;;;;;5045340;28;20091;-77
2021/09/16 04:59:23;;;;;;;24.02;18.55;;;17.80;99.90;;;;;;5053484;28;20032;-76
2021/09/16 05:01:49;;;;;;;20.48;17.08;;;17.70;99.90;;;;;;5057043;28;20394;-76
2021/09/16 05:04:14;;;;;;;22.10;17.45;;;17.60;99.90;;;;;;5042735;28;20559;-76
2021/09/16 05:06:39;;;;;;;22.48;17.40;;;17.60;99.90;;;;;;5046221;28;20490;-76
2021/09/16 05:09:05;;;;;;;23.35;18.42;;;17.50;99.90;;;;;;5042592;28;20029;-75
2021/09/16 05:11:38;;;;;;;18.02;15.55;;;17.60;99.90;;;;;;5041646;28;20048;-76
2021/09/16 05:14:04;;;;;;;21.60;17.92;;;17.50;99.90;;;;;;5046116;28;20044;-76
2021/09/16 05:16:29;;;;;;;25.25;19.02;;;17.50;99.90;;;;;;5062992;28;20123;-76
2021/09/16 05:18:55;;;;;;;28.13;19.63;;;17.40;99.90;;;;;;5047198;28;20029;-76
2021/09/16 05:21:22;;;;;;;28.98;19.35;;;17.40;99.90;;;;;;5049803;28;20029;-76
2021/09/16 05:23:47;;;;;;;24.05;18.88;;;17.50;99.90;;;;;;5045882;28;20021;-75
2021/09/16 05:26:13;;;;;;;23.92;18.55;;;17.50;99.90;;;;;;5047872;28;20044;-76
2021/09/16 05:28:38;;;;;;;24.65;18.90;;;17.50;99.90;;;;;;5055002;28;20028;-76
2021/09/16 05:31:04;;;;;;;19.38;17.20;;;17.50;99.90;;;;;;5041531;28;20044;-76
2021/09/16 05:33:29;;;;;;;21.92;17.27;;;17.50;99.90;;;;;;5054858;28;20037;-76
2021/09/16 05:35:55;;;;;;;21.05;18.13;;;17.50;99.90;;;;;;5039776;28;20049;-77
2021/09/16 05:38:20;;;;;;;20.80;16.88;;;17.50;99.90;;;;;;5044983;28;20108;-74
2021/09/16 05:40:46;;;;;;;20.50;17.20;;;17.50;99.90;;;;;;5034859;28;20476;-75
2021/09/16 05:43:11;;;;;;;20.88;17.50;;;17.50;99.90;;;;;;5045025;28;20108;-75
2021/09/16 05:45:38;;;;;;;22.25;18.65;;;17.60;99.90;;;;;;5047918;28;20105;-75
2021/09/16 05:48:04;;;;;;;22.35;18.23;;;17.60;99.90;;;;;;5041424;28;20029;-75
2021/09/16 05:50:29;;;;;;;25.63;17.48;;;17.60;99.90;;;;;;5039828;28;20026;-75
2021/09/16 05:52:55;;;;;;;20.70;17.35;;;17.60;99.90;;;;;;5046510;28;20638;-75
2021/09/16 05:55:21;;;;;;;23.42;17.45;;;17.60;99.90;;;;;;5047544;28;20064;-75
2021/09/16 05:57:46;;;;;;;25.23;19.02;;;17.60;99.90;;;;;;5042490;28;20446;-74
2021/09/16 06:00:12;;;;;;;24.92;19.42;;;17.60;99.90;;;;;;5041130;28;20026;-75
2021/09/16 06:02:38;;;;;;;27.17;20.00;;;17.60;99.90;;;;;;5046179;28;20037;-75
2021/09/16 06:05:04;;;;;;;25.67;19.10;;;17.60;99.90;;;;;;5046281;28;20025;-75
2021/09/16 06:07:30;;;;;;;20.40;18.20;;;17.70;99.90;;;;;;5041912;28;20068;-75
2021/09/16 06:09:56;;;;;;;24.00;19.23;;;17.70;99.90;;;;;;5040653;28;20060;-75
2021/09/16 06:12:21;;;;;;;28.20;21.42;;;17.80;99.90;;;;;;5045400;28;20441;-75
2021/09/16 06:14:47;;;;;;;30.35;20.80;;;17.60;99.90;;;;;;5047310;28;20032;-75
2021/09/16 06:17:12;;;;;;;29.58;21.73;;;17.50;99.90;;;;;;5040670;28;20025;-72
2021/09/16 06:19:38;;;;;;;30.33;21.20;;;17.40;99.90;;;;;;5053241;28;20040;-76
2021/09/16 06:22:04;;;;;;;28.15;20.65;;;17.30;99.90;;;;;;5047054;28;20057;-75
2021/09/16 06:24:30;;;;;;;31.85;21.75;;;17.40;99.90;;;;;;5046115;28;20071;-75
2021/09/16 06:26:56;;;;;;;33.17;21.67;;;17.20;99.90;;;;;;5052456;28;20033;-75
2021/09/16 06:29:21;;;;;;;29.08;21.55;;;17.10;99.90;;;;;;5039208;28;20025;-76
2021/09/16 06:31:47;;;;;;;27.60;21.13;;;16.80;99.90;;;;;;5046248;28;20032;-76
2021/09/16 06:34:13;;;;;;;28.75;21.92;;;16.80;99.90;;;;;;5061064;28;20020;-75
2021/09/16 06:36:38;;;;;;;26.42;21.25;;;16.70;99.90;;;;;;5046251;28;20025;-75
2021/09/16 06:39:04;;;;;;;30.02;21.88;;;16.60;99.90;;;;;;5046998;28;20044;-76
2021/09/16 06:41:30;;;;;;;27.23;21.33;;;16.60;99.90;;;;;;5040675;28;20535;-75
2021/09/16 06:43:55;;;;;;;27.13;22.05;;;16.70;99.90;;;;;;5066835;28;20103;-76
2021/09/16 06:46:21;;;;;;;29.67;22.45;;;16.50;99.90;;;;;;5046289;28;20032;-74
2021/09/16 06:48:46;;;;;;;33.28;23.00;;;16.60;99.90;;;;;;5045653;28;20029;-75
2021/09/16 06:51:12;;;;;;;30.25;23.65;;;16.50;99.90;;;;;;5033458;28;20041;-76
2021/09/16 06:53:37;;;;;;;30.02;22.83;;;16.60;99.90;;;;;;5030875;28;20047;-75
2021/09/16 06:56:03;;;;;;;33.17;24.08;;;16.60;99.90;;;;;;5051523;28;20544;-75
2021/09/16 06:58:28;;;;;;;33.13;25.23;;;16.60;99.90;;;;;;5052750;28;20077;-75
2021/09/16 07:00:54;;;;;;;41.55;27.77;;;16.50;99.90;;;;;;5053344;28;20110;-75
2021/09/16 07:03:19;;;;;;;38.10;26.35;;;16.50;99.90;;;;;;5051625;28;20025;-75
2021/09/16 07:05:45;;;;;;;42.83;28.67;;;16.70;99.90;;;;;;5052527;28;20017;-75
2021/09/16 07:08:11;;;;;;;43.22;28.63;;;16.40;99.90;;;;;;5051711;28;20406;-75
2021/09/16 07:10:36;;;;;;;41.10;27.83;;;16.40;99.90;;;;;;5051554;28;20102;-75
2021/09/16 07:13:02;;;;;;;38.50;28.02;;;16.30;99.90;;;;;;5051675;28;20046;-75
2021/09/16 07:15:27;;;;;;;43.50;29.42;;;16.20;99.90;;;;;;5052384;28;20478;-75
2021/09/16 07:17:53;;;;;;;40.13;28.38;;;16.10;99.90;;;;;;5052748;28;20055;-75
2021/09/16 07:20:18;;;;;;;49.20;31.20;;;16.00;99.90;;;;;;5052522;28;20048;-75
2021/09/16 07:22:44;;;;;;;44.17;30.40;;;16.10;99.90;;;;;;5053063;28;20048;-75
2021/09/16 07:25:10;;;;;;;37.13;26.67;;;16.20;99.90;;;;;;5052919;28;20025;-75
2021/09/16 07:27:36;;;;;;;40.20;28.30;;;16.30;99.90;;;;;;5052951;28;20025;-75
2021/09/16 07:30:02;;;;;;;43.08;29.02;;;16.20;99.90;;;;;;5059300;28;20065;-75
2021/09/16 07:32:28;;;;;;;39.40;27.25;;;16.10;99.90;;;;;;5034002;28;20503;-75
2021/09/16 07:34:53;;;;;;;37.85;27.05;;;16.30;99.90;;;;;;5031156;28;20034;-75
2021/09/16 07:37:19;;;;;;;35.10;24.83;;;16.10;99.90;;;;;;5045125;28;20021;-75
2021/09/16 07:39:44;;;;;;;35.45;26.65;;;16.20;99.90;;;;;;5052399;28;20028;-75
2021/09/16 07:42:10;;;;;;;33.78;24.63;;;16.30;99.90;;;;;;5052273;28;20025;-75
2021/09/16 07:44:36;;;;;;;35.08;24.70;;;16.30;99.90;;;;;;5052003;28;20394;-75
2021/09/16 07:47:01;;;;;;;40.30;27.63;;;16.40;99.90;;;;;;5052118;28;20052;-75
2021/09/16 07:49:28;;;;;;;34.25;24.27;;;16.40;99.90;;;;;;5052011;28;20028;-75
2021/09/16 07:51:53;;;;;;;31.73;23.50;;;16.30;99.90;;;;;;5050734;28;20043;-75
2021/09/16 07:54:19;;;;;;;30.10;23.33;;;16.40;99.90;;;;;;5051714;28;20029;-75
2021/09/16 07:56:44;;;;;;;33.83;24.67;;;16.20;99.90;;;;;;5050565;28;20074;-75
2021/09/16 07:59:10;;;;;;;30.48;23.95;;;16.20;99.90;;;;;;5052013;28;20094;-75
2021/09/16 08:01:36;;;;;;;35.50;25.65;;;16.00;99.90;;;;;;5050682;28;20021;-75
2021/09/16 08:04:03;;;;;;;29.13;23.25;;;16.10;99.90;;;;;;5044460;28;20076;-76
2021/09/16 08:06:28;;;;;;;35.30;24.23;;;16.50;99.90;;;;;;5051693;28;20029;-75
2021/09/16 08:08:54;;;;;;;31.17;22.85;;;16.60;99.90;;;;;;5044458;28;20060;-75
2021/09/16 08:11:20;;;;;;;42.08;25.40;;;16.70;99.90;;;;;;5045201;28;20530;-75
2021/09/16 08:13:45;;;;;;;44.83;26.52;;;16.70;99.90;;;;;;5032354;28;20065;-75
2021/09/16 08:16:11;;;;;;;39.53;24.08;;;16.40;99.90;;;;;;5043011;28;20024;-75
2021/09/16 08:18:37;;;;;;;33.08;24.63;;;16.40;99.90;;;;;;5038213;28;20032;-75
2021/09/16 08:21:03;;;;;;;31.77;22.70;;;16.50;99.90;;;;;;5039514;28;20022;-75
2021/09/16 08:23:29;;;;;;;27.42;21.25;;;16.50;99.90;;;;;;5043962;28;20060;-76
2021/09/16 08:25:54;;;;;;;31.02;23.23;;;16.50;99.90;;;;;;5054459;28;20021;-75
2021/09/16 08:28:20;;;;;;;29.30;21.70;;;16.50;99.90;;;;;;5038181;28;20025;-75
2021/09/16 08:30:46;;;;;;;27.20;19.90;;;16.50;99.90;;;;;;5051779;28;20100;-76
2021/09/16 08:33:13;;;;;;;28.50;20.15;;;16.70;99.90;;;;;;5038377;28;20056;-76
2021/09/16 08:35:38;;;;;;;23.63;18.58;;;16.70;99.90;;;;;;5038825;28;20129;-75
2021/09/16 08:38:04;;;;;;;27.55;19.63;;;16.80;99.90;;;;;;5044937;28;20029;-76
2021/09/16 08:40:30;;;;;;;20.88;17.23;;;16.90;99.90;;;;;;5039015;28;20036;-76
2021/09/16 08:42:56;;;;;;;19.92;16.52;;;16.70;99.90;;;;;;5057505;28;20079;-75
2021/09/16 08:45:22;;;;;;;22.27;17.40;;;16.70;99.90;;;;;;5055780;28;20108;-75
2021/09/16 08:47:51;;;;;;;21.48;18.10;;;16.60;99.90;;;;;;5053770;28;20016;-75
2021/09/16 08:50:19;;;;;;;24.02;18.95;;;16.80;99.90;;;;;;5060868;28;20025;-75
2021/09/16 08:52:46;;;;;;;27.40;19.55;;;16.70;99.90;;;;;;5044174;28;20028;-75
2021/09/16 08:55:14;;;;;;;25.10;20.13;;;16.40;99.90;;;;;;5034045;28;20033;-74
2021/09/16 08:57:42;;;;;;;23.92;19.33;;;16.60;99.90;;;;;;5041979;28;20033;-74
2021/09/16 09:00:11;;;;;;;24.42;19.70;;;16.80;99.90;;;;;;5054590;28;20056;-75
2021/09/16 09:02:37;;;;;;;27.13;20.67;;;17.00;99.90;;;;;;5049700;28;20425;-75
2021/09/16 09:05:04;;;;;;;27.77;19.92;;;17.30;99.90;;;;;;5053943;28;20052;-75
2021/09/16 09:08:03;;;;;;;25.70;20.27;;;17.20;99.90;;;;;;5048794;28;20104;-75
2021/09/16 09:10:43;;;;;;;28.20;20.70;;;17.00;99.90;;;;;;5013793;28;20036;-76
2021/09/16 09:13:31;;;;;;;25.83;20.27;;;16.90;99.90;;;;;;5057977;28;20063;-75
2021/09/16 09:16:07;;;;;;;23.25;18.10;;;17.00;99.90;;;;;;5052842;28;20025;-75
2021/09/16 09:18:40;;;;;;;;;;;17.20;99.90;;;;;;5052658;28;20031;-75
2021/09/16 09:21:08;;;;;;;27.17;20.35;;;17.10;99.90;;;;;;5057313;28;19911;-75
2021/09/16 09:23:45;;;;;;;28.45;20.85;;;17.40;99.90;;;;;;5037229;28;20060;-75
2021/09/16 09:26:30;;;;;;;25.83;19.58;;;17.20;99.90;;;;;;5048179;28;20033;-75
2021/09/16 09:29:08;;;;;;;26.15;19.65;;;17.20;99.90;;;;;;5055225;28;20390;-76
2021/09/16 09:31:40;;;;;;;27.73;21.02;;;17.30;99.90;;;;;;5049948;28;20096;-75
2021/09/16 09:34:22;;;;;;;25.13;20.60;;;17.20;99.90;;;;;;5047834;28;20400;-75
2021/09/16 09:36:48;;;;;;;29.80;21.38;;;17.40;99.90;;;;;;5050424;28;20384;-75
2021/09/16 09:39:13;;;;;;;23.73;19.38;;;17.30;99.90;;;;;;5054662;28;20152;-74
2021/09/16 09:41:39;;;;;;;22.75;18.00;;;17.20;99.90;;;;;;5046112;28;20029;-75
2021/09/16 09:44:10;;;;;;;25.50;19.50;;;17.20;99.90;;;;;;5048133;28;20467;-75
2021/09/16 09:46:47;;;;;;;23.92;18.48;;;17.30;99.90;;;;;;5042286;28;20087;-75
2021/09/16 09:49:16;;;;;;;25.40;19.10;;;17.30;99.90;;;;;;5035820;28;20035;-75
2021/09/16 09:51:50;;;;;;;25.10;19.60;;;17.20;99.90;;;;;;5033181;28;20022;-74
2021/09/16 09:54:28;;;;;;;23.33;19.42;;;17.40;99.90;;;;;;5039877;28;20071;-75
2021/09/16 09:57:15;;;;;;;27.10;19.52;;;17.30;99.90;;;;;;5039719;28;20438;-75
2021/09/16 09:59:52;;;;;;;;;;;17.40;99.90;;;;;;5064600;28;20078;-75
2021/09/16 10:02:18;;;;;;;25.88;20.63;;;17.50;99.90;;;;;;5056021;28;19905;-75
2021/09/16 10:04:44;;;;;;;24.60;19.38;;;17.20;99.90;;;;;;5054069;28;20406;-75
2021/09/16 10:07:25;;;;;;;28.73;20.65;;;17.20;99.90;;;;;;5035627;28;20570;-75
2021/09/16 10:09:55;;;;;;;26.23;20.67;;;17.20;99.90;;;;;;5032941;28;20053;-74
2021/09/16 10:12:20;;;;;;;26.90;20.23;;;17.30;99.90;;;;;;5041674;28;20025;-74
2021/09/16 10:14:46;;;;;;;25.48;19.05;;;17.30;99.90;;;;;;5060676;28;20032;-75
2021/09/16 10:17:12;;;;;;;27.25;19.15;;;17.40;99.90;;;;;;5054354;28;20100;-75
2021/09/16 10:19:41;;;;;;;23.27;18.67;;;17.30;99.90;;;;;;5044059;28;20022;-75
2021/09/16 10:22:13;;;;;;;26.40;20.10;;;17.40;99.90;;;;;;5052354;28;20123;-74
2021/09/16 10:24:40;;;;;;;23.98;17.95;;;17.30;99.90;;;;;;5062900;28;20060;-75
2021/09/16 10:27:25;;;;;;;24.08;18.63;;;17.40;99.90;;;;;;5058971;28;20036;-75
2021/09/16 10:29:51;;;;;;;25.40;17.38;;;17.40;99.90;;;;;;5056048;28;20040;-74
2021/09/16 10:32:20;;;;;;;24.85;19.55;;;17.40;99.90;;;;;;5032588;28;20033;-75
2021/09/16 10:34:48;;;;;;;20.00;16.58;;;17.50;99.90;;;;;;5052077;28;20031;-75
2021/09/16 10:37:16;;;;;;;21.83;15.50;;;17.50;99.90;;;;;;5054581;28;20099;-75
2021/09/16 10:39:44;;;;;;;21.00;15.38;;;17.60;99.90;;;;;;5042072;28;20036;-75
2021/09/16 10:42:11;;;;;;;16.23;14.05;;;17.60;99.90;;;;;;5054900;28;20021;-75
2021/09/16 10:44:38;;;;;;;20.58;15.48;;;17.30;99.90;;;;;;5058733;28;20055;-75
2021/09/16 10:47:18;;;;;;;17.27;12.75;;;17.40;99.90;;;;;;5056405;28;20024;-75
2021/09/16 10:49:45;;;;;;;14.18;12.23;;;17.30;99.90;;;;;;5049882;28;20032;-75
2021/09/16 10:52:11;;;;;;;14.95;11.80;;;17.30;99.90;;;;;;5045863;28;20025;-75
2021/09/16 10:54:48;;;;;;;15.25;13.65;;;17.30;99.90;;;;;;5045162;28;20112;-75
2021/09/16 10:57:29;;;;;;;17.63;13.43;;;17.30;99.90;;;;;;5057798;28;20021;-75
2021/09/16 10:59:54;;;;;;;12.75;10.50;;;17.40;99.90;;;;;;5042108;28;20021;-75
2021/09/16 11:02:21;;;;;;;12.43;10.02;;;17.40;99.90;;;;;;5051349;28;20092;-75
2021/09/16 11:04:56;;;;;;;15.38;10.20;;;17.00;99.90;;;;;;5050484;28;20071;-75
2021/09/16 11:07:40;;;;;;;14.80;9.73;;;16.80;99.90;;;;;;5049422;28;20189;-75
2021/09/16 11:10:19;;;;;;;10.70;9.60;;;16.60;99.90;;;;;;5041720;28;20080;-75
2021/09/16 11:12:51;;;;;;;15.00;10.48;;;16.60;99.90;;;;;;5042808;28;20026;-75
2021/09/16 11:15:25;;;;;;;13.88;10.40;;;16.40;99.90;;;;;;5060406;28;20025;-75
2021/09/16 11:17:51;;;;;;;15.27;11.98;;;16.30;99.90;;;;;;5043807;28;20021;-75
2021/09/16 11:20:19;;;;;;;13.88;12.00;;;16.40;99.90;;;;;;5062951;28;20028;-75
2021/09/16 11:22:50;;;;;;;16.88;13.52;;;16.10;99.90;;;;;;5046992;28;20379;-75
2021/09/16 11:25:15;;;;;;;16.17;13.25;;;16.10;99.90;;;;;;5042404;28;20102;-73
2021/09/16 11:27:41;;;;;;;17.58;12.52;;;16.30;99.90;;;;;;5045708;28;20033;-74
2021/09/16 11:30:14;;;;;;;16.60;12.90;;;16.60;99.90;;;;;;5044120;28;20111;-74
2021/09/16 11:32:40;;;;;;;12.98;10.70;;;16.50;99.90;;;;;;5047901;28;20074;-75
2021/09/16 11:35:12;;;;;;;16.88;12.88;;;16.60;99.90;;;;;;5039685;28;20112;-75
2021/09/16 11:37:45;;;;;;;16.73;12.13;;;16.50;99.90;;;;;;5050913;28;20021;-75
2021/09/16 11:40:14;;;;;;;18.80;13.77;;;16.70;99.90;;;;;;5052189;28;20068;-75
2021/09/16 11:42:43;;;;;;;14.95;11.70;;;16.70;99.90;;;;;;5042566;28;20064;-75
2021/09/16 11:45:20;;;;;;;16.48;12.40;;;16.90;99.90;;;;;;5058726;28;20024;-75
2021/09/16 11:48:10;;;;;;;17.23;13.23;;;16.90;99.90;;;;;;5054880;28;20029;-76
2021/09/16 11:51:01;;;;;;;16.27;13.23;;;16.60;99.90;;;;;;5047448;28;20105;-75
2021/09/16 11:53:29;;;;;;;16.02;12.90;;;16.70;99.90;;;;;;5055132;28;20027;-75
2021/09/16 11:56:09;;;;;;;16.42;13.45;;;16.70;99.90;;;;;;5046880;28;20468;-75
2021/09/16 11:58:36;;;;;;;18.65;13.88;;;16.80;99.90;;;;;;5045513;28;20426;-74
2021/09/16 12:01:06;;;;;;;19.33;13.43;;;17.00;99.90;;;;;;5039162;28;20383;-75
2021/09/16 12:03:42;;;;;;;17.13;13.40;;;17.00;99.90;;;;;;5062421;28;20036;-74
2021/09/16 12:06:13;;;;;;;15.15;12.40;;;17.10;99.90;;;;;;5031937;28;20022;-75
2021/09/16 12:08:44;;;;;;;15.13;12.05;;;17.20;99.90;;;;;;5035055;28;20017;-75
2021/09/16 12:11:25;;;;;;;15.75;12.32;;;17.40;99.90;;;;;;5050352;28;20032;-74
2021/09/16 12:13:53;;;;;;;19.65;13.80;;;17.50;99.90;;;;;;5038727;28;20379;-75
2021/09/16 12:16:23;;;;;;;24.25;15.32;;;17.60;99.90;;;;;;5063920;28;20024;-75
2021/09/16 12:19:05;;;;;;;19.13;14.60;;;17.50;99.90;;;;;;5039188;28;20025;-75
2021/09/16 12:21:47;;;;;;;17.77;14.52;;;17.50;99.90;;;;;;5062195;28;20067;-75
2021/09/16 12:24:16;;;;;;;17.77;13.50;;;17.40;99.90;;;;;;5030680;28;20018;-75
2021/09/16 12:26:50;;;;;;;20.33;15.02;;;17.60;99.90;;;;;;5057794;28;20056;-75
2021/09/16 12:29:24;;;;;;;18.20;14.20;;;17.80;99.90;;;;;;5057540;28;20025;-75
2021/09/16 12:32:09;;;;;;;21.45;14.48;;;17.70;99.90;;;;;;5030626;28;20029;-75